Hammond, Wisconsin
Current Conditions -  °F | °C
As of 4:15 PM on Thursday 23 Oct 2014 (Local Time) from KRNH Reporting Station
Clear Clear  
Wind Chill: 61°   Ceiling: Unl
Heat Index: 61°   Visibility: 10mi
Dew Point: 51°   Wind: 5mph
Humidity: 69%   Direction: 190°S
Pressure: 29.97"   Gusts: NA
Location:  44.98°N, 92.44°W
Report Text: KRNH 232115Z AUTO 19004KT 10SM CLR 16/10 A2997 RMK AO2 T01600103
Loading
Personal Weather Stations






























Interactive Weather Map
Tropical Storm Tracking
New forecast layout! Learn more

10-Day Weather Forecast

Advertisements
Track Severe Weather on mobile